Terminal Aerodrome Forecast
Issued by NWS Tuscon, AZ

Home | Current Version | Previous Version | Text Only | Print | Product List | Glossary On
Versions: 1 2 3 4 5 6 7 8 9 10 11 12 13 14
000
FTUS45 KTWC 261120
TAFDUG
TAF
KDUG 261120Z 2612/2712 VRB04KT P6SM SCT100 BKN180
     FM261600 32006KT P6SM SCT180
     FM262000 33010KT P6SM VCSH SCT070 BKN200
     FM270200 34006KT P6SM SCT070 BKN200=

USA.gov is the U.S. government's official web portal to all federal, state and local government web resources and services.